LEPP/PNA METAR and TAF weather

Enter ICAO airport designator
Station Type Date Time Source
LEPP METAR 2020/03/31 12:00 UTC NOAA

LEPP 311200Z 05001KT 9999 -RA BKN006 BKN045 04/03 Q1013


Station Type Date Time Source
LEPP Decoded METAR 2020/03/31 12:00 UTC NOAA

Pamplona / Noain, Spain (LEPP) 42-46N 001-38W 453M
Mar 31, 2020 - 08:00 AM EDT / 2020.03.31 1200 UTC
Wind: from the NE (050 degrees) at 1 MPH (1 KT):0
Visibility: greater than 7 mile(s):0
Sky conditions: mostly cloudy
Weather: light rain
Temperature: 39 F (4 C)
Dew Point: 37 F (3 C)
Relative Humidity: 93%
Pressure (altimeter): 29.91 in. Hg (1013 hPa)
ob: LEPP 311200Z 05001KT 9999 -RA BKN006 BKN045 04/03 Q1013
cycle: 12

Station Type Date Time Source
LEPP TAF 2020/03/31 09:27 UTC NOAA

TAF TAF LEPP 310800Z 3109/0109 VRB04KT 9999 FEW010 BKN030 TX09/3115Z TN02/3109Z
TEMPO 3109/3112 1500 -SN BKN010 PROB30
TEMPO 3109/3112 0800 -SN BKN005 PROB30
TEMPO 3109/3121 4000 RA BKN010
TEMPO 3121/0109 16010KT

Example: see airport list